Marysville, KS

10:13 AM CDT on August 22, 2014 (GMT -0500)
Beatrice Municipal | Change Station
CLOSE
Current Station
Airport
Location: Beatrice,
Elevation: 1322 ft
Nearby Weather Stations
Active Advisory: Heat Advisory Active Notice: Record Report

Elev 1322 ft 40.30 °N, 96.75 °W | Updated 18 minutes ago

Clear
Clear
80 °F
Feels Like 80 °F
N
12
Wind Variable Wind from SSE

Today
High -- | Low -- °F
--% Chance of Precip.
Yesterday
High -- | Low -- °F
Precip. -- in
6:45 AM 8:13 PM
Waning Crescent, 8% visible
Pressure 29.93 in
Visibility 10.0 miles
Clouds Clear
Dew Point 73 °F
Humidity 81%
Rainfall 0.01 in
Snow Depth Not available.
UV 4 out of 12
Pollen 9.30 out of 12
Air Quality Not available.
Flu Activity Not available.
METAR KBIE 221455Z AUTO 15010KT 10SM CLR 26/23 A2993 RMK AO2 LTG DSNT SE T02640229

More Conditions Fewer Conditions

Pressure 29.93 in
Visibility 10.0 miles
Clouds Clear
Dew Point 73 °F
Humidity 81%
Rainfall 0.01 in
Snow Depth Not available.
UV 4 out of 12
Pollen 9.30 out of 12
Air Quality Not available.
Flu Activity Not available.
METAR KBIE 221455Z AUTO 15010KT 10SM CLR 26/23 A2993 RMK AO2 LTG DSNT SE T02640229

More Conditions Fewer Conditions

10-Day Weather Forecast

Almanac

Astronomy

Aug. 22, 2014 Rise Set
Actual Time 6:45 AM CDT 8:13 PM CDT
Civil Twilight 6:16 AM CDT 8:41 PM CDT
Nautical Twilight 5:42 AM CDT 9:15 PM CDT
Astronomical Twilight 5:06 AM CDT 9:51 PM CDT
Moon 4:08 AM CDT 6:22 PM CDT
Length of Visible Light 14h 24m
Length of Day
13h 27m
Tomorrow will be 2m 25s shorter.
Waning Crescent, 8% of the Moon is Illuminated
Today
Waning Crescent
Aug 25
New
Sep 2
First Quarter
Sep 8
Full
Sep 15
Last Quarter

Today's Extremes

State Highs State Lows

Community

WunderPhotos

Upload Photos

1,746,187 photos uploaded!

WunderBlogs® & News

Nearby

Snow Depth

Station Depth Elevation
No new snow has been reported.

Earthquake Activity

City Distance Mag. Time & Date
No recent earthquake activity has been reported nearby.
Minimum magnitude displayed is 2.5.

Coastal Water Temperatures

Place Temperature
No Stations Reporting

Nearby Weather Stations